sensor_id;sensor_type;location;lat;lon;timestamp;temperature;humidity
40932;DHT22;36257;46.052;12.540;2023-06-10T00:00:13;19.20;99.90
40932;DHT22;36257;46.052;12.540;2023-06-10T00:02:40;19.20;99.90
40932;DHT22;36257;46.052;12.540;2023-06-10T00:05:06;19.20;99.90
40932;DHT22;36257;46.052;12.540;2023-06-10T00:07:33;19.20;99.90
40932;DHT22;36257;46.052;12.540;2023-06-10T00:10:04;19.20;99.90
40932;DHT22;36257;46.052;12.540;2023-06-10T00:12:30;19.20;99.90
40932;DHT22;36257;46.052;12.540;2023-06-10T00:14:56;19.20;99.90
40932;DHT22;36257;46.052;12.540;2023-06-10T00:17:22;19.20;99.90
40932;DHT22;36257;46.052;12.540;2023-06-10T00:19:48;19.10;99.90
40932;DHT22;36257;46.052;12.540;2023-06-10T00:22:15;19.10;99.90
40932;DHT22;36257;46.052;12.540;2023-06-10T00:24:42;19.10;99.90
40932;DHT22;36257;46.052;12.540;2023-06-10T00:27:07;19.10;99.90
40932;DHT22;36257;46.052;12.540;2023-06-10T00:29:33;19.00;99.90
40932;DHT22;36257;46.052;12.540;2023-06-10T00:31:59;19.10;99.90
40932;DHT22;36257;46.052;12.540;2023-06-10T00:34:24;19.00;99.90
40932;DHT22;36257;46.052;12.540;2023-06-10T00:36:50;18.90;99.90
40932;DHT22;36257;46.052;12.540;2023-06-10T00:39:16;18.90;99.90
40932;DHT22;36257;46.052;12.540;2023-06-10T00:41:42;18.90;99.90
40932;DHT22;36257;46.052;12.540;2023-06-10T00:44:08;18.90;99.90
40932;DHT22;36257;46.052;12.540;2023-06-10T00:46:34;18.80;99.90
40932;DHT22;36257;46.052;12.540;2023-06-10T00:49:00;18.80;99.90
40932;DHT22;36257;46.052;12.540;2023-06-10T00:51:26;18.80;99.90
40932;DHT22;36257;46.052;12.540;2023-06-10T00:53:52;18.80;99.90
40932;DHT22;36257;46.052;12.540;2023-06-10T00:56:18;18.80;99.90
40932;DHT22;36257;46.052;12.540;2023-06-10T00:58:44;18.80;99.90
40932;DHT22;36257;46.052;12.540;2023-06-10T01:01:10;18.80;99.90
40932;DHT22;36257;46.052;12.540;2023-06-10T01:03:39;18.80;99.90
40932;DHT22;36257;46.052;12.540;2023-06-10T01:09:34;18.80;99.90
40932;DHT22;36257;46.052;12.540;2023-06-10T01:12:12;18.80;99.90
40932;DHT22;36257;46.052;12.540;2023-06-10T01:14:40;18.80;99.90
40932;DHT22;36257;46.052;12.540;2023-06-10T01:17:10;18.80;99.90
40932;DHT22;36257;46.052;12.540;2023-06-10T01:19:36;18.80;99.90
40932;DHT22;36257;46.052;12.540;2023-06-10T01:22:03;18.80;99.90
40932;DHT22;36257;46.052;12.540;2023-06-10T01:24:29;18.80;99.90
40932;DHT22;36257;46.052;12.540;2023-06-10T01:27:00;18.80;99.90
40932;DHT22;36257;46.052;12.540;2023-06-10T01:29:33;18.80;99.90
40932;DHT22;36257;46.052;12.540;2023-06-10T01:34:42;18.70;99.90
40932;DHT22;36257;46.052;12.540;2023-06-10T01:37:15;18.70;99.90
40932;DHT22;36257;46.052;12.540;2023-06-10T01:39:42;18.70;99.90
40932;DHT22;36257;46.052;12.540;2023-06-10T01:42:10;18.70;99.90
40932;DHT22;36257;46.052;12.540;2023-06-10T01:44:38;18.70;99.90
40932;DHT22;36257;46.052;12.540;2023-06-10T01:47:05;18.70;99.90
40932;DHT22;36257;46.052;12.540;2023-06-10T01:49:30;18.70;99.90
40932;DHT22;36257;46.052;12.540;2023-06-10T01:51:56;18.80;99.90
40932;DHT22;36257;46.052;12.540;2023-06-10T01:54:22;18.70;99.90
40932;DHT22;36257;46.052;12.540;2023-06-10T01:56:47;18.70;99.90
40932;DHT22;36257;46.052;12.540;2023-06-10T01:59:13;18.80;99.90
40932;DHT22;36257;46.052;12.540;2023-06-10T02:01:38;18.80;99.90
40932;DHT22;36257;46.052;12.540;2023-06-10T02:04:04;18.80;99.90
40932;DHT22;36257;46.052;12.540;2023-06-10T02:06:30;18.80;99.90
40932;DHT22;36257;46.052;12.540;2023-06-10T02:08:56;18.70;99.90
40932;DHT22;36257;46.052;12.540;2023-06-10T02:11:21;18.60;99.90
40932;DHT22;36257;46.052;12.540;2023-06-10T02:13:47;18.60;99.90
40932;DHT22;36257;46.052;12.540;2023-06-10T02:16:13;18.70;99.90
40932;DHT22;36257;46.052;12.540;2023-06-10T02:18:41;18.60;99.90
40932;DHT22;36257;46.052;12.540;2023-06-10T02:21:08;18.60;99.90
40932;DHT22;36257;46.052;12.540;2023-06-10T02:23:34;18.60;99.90
40932;DHT22;36257;46.052;12.540;2023-06-10T02:26:00;18.60;99.90
40932;DHT22;36257;46.052;12.540;2023-06-10T02:28:26;18.60;99.90
40932;DHT22;36257;46.052;12.540;2023-06-10T02:30:51;18.50;99.90
40932;DHT22;36257;46.052;12.540;2023-06-10T02:33:17;18.40;99.90
40932;DHT22;36257;46.052;12.540;2023-06-10T02:35:43;18.40;99.90
40932;DHT22;36257;46.052;12.540;2023-06-10T02:38:09;18.40;99.90
40932;DHT22;36257;46.052;12.540;2023-06-10T02:40:35;18.40;99.90
40932;DHT22;36257;46.052;12.540;2023-06-10T02:43:00;18.40;99.90
40932;DHT22;36257;46.052;12.540;2023-06-10T02:45:26;18.50;99.90
40932;DHT22;36257;46.052;12.540;2023-06-10T02:47:52;18.50;99.90
40932;DHT22;36257;46.052;12.540;2023-06-10T02:50:18;18.50;99.90
40932;DHT22;36257;46.052;12.540;2023-06-10T02:52:44;18.50;99.90
40932;DHT22;36257;46.052;12.540;2023-06-10T02:55:10;18.50;99.90
40932;DHT22;36257;46.052;12.540;2023-06-10T02:57:35;18.50;99.90
40932;DHT22;36257;46.052;12.540;2023-06-10T03:00:01;18.50;99.90
40932;DHT22;36257;46.052;12.540;2023-06-10T03:02:30;18.50;99.90
40932;DHT22;36257;46.052;12.540;2023-06-10T03:04:57;18.50;99.90
40932;DHT22;36257;46.052;12.540;2023-06-10T03:07:23;18.40;99.90
40932;DHT22;36257;46.052;12.540;2023-06-10T03:09:49;18.40;99.90
40932;DHT22;36257;46.052;12.540;2023-06-10T03:12:15;18.40;99.90
40932;DHT22;36257;46.052;12.540;2023-06-10T03:14:41;18.40;99.90
40932;DHT22;36257;46.052;12.540;2023-06-10T03:17:07;18.40;99.90
40932;DHT22;36257;46.052;12.540;2023-06-10T03:19:34;18.40;99.90
40932;DHT22;36257;46.052;12.540;2023-06-10T03:22:15;18.40;99.90
40932;DHT22;36257;46.052;12.540;2023-06-10T03:24:41;18.50;99.90
40932;DHT22;36257;46.052;12.540;2023-06-10T03:27:09;18.50;99.90
40932;DHT22;36257;46.052;12.540;2023-06-10T03:29:36;18.40;99.90
40932;DHT22;36257;46.052;12.540;2023-06-10T03:32:02;18.40;99.90
40932;DHT22;36257;46.052;12.540;2023-06-10T03:34:28;18.50;99.90
40932;DHT22;36257;46.052;12.540;2023-06-10T03:36:55;18.40;99.90
40932;DHT22;36257;46.052;12.540;2023-06-10T03:39:21;18.40;99.90
40932;DHT22;36257;46.052;12.540;2023-06-10T03:41:48;18.40;99.90
40932;DHT22;36257;46.052;12.540;2023-06-10T03:44:14;18.40;99.90
40932;DHT22;36257;46.052;12.540;2023-06-10T03:46:40;18.50;99.90
40932;DHT22;36257;46.052;12.540;2023-06-10T03:49:06;18.40;99.90
40932;DHT22;36257;46.052;12.540;2023-06-10T03:51:32;18.50;99.90
40932;DHT22;36257;46.052;12.540;2023-06-10T03:53:57;18.50;99.90
40932;DHT22;36257;46.052;12.540;2023-06-10T03:56:23;18.50;99.90
40932;DHT22;36257;46.052;12.540;2023-06-10T03:58:49;18.50;99.90
40932;DHT22;36257;46.052;12.540;2023-06-10T04:01:14;18.40;99.90
40932;DHT22;36257;46.052;12.540;2023-06-10T04:03:40;18.50;99.90
40932;DHT22;36257;46.052;12.540;2023-06-10T04:06:07;18.50;99.90
40932;DHT22;36257;46.052;12.540;2023-06-10T04:08:33;18.50;99.90
40932;DHT22;36257;46.052;12.540;2023-06-10T04:10:59;18.60;99.90
40932;DHT22;36257;46.052;12.540;2023-06-10T04:13:24;18.60;99.90
40932;DHT22;36257;46.052;12.540;2023-06-10T04:15:50;18.60;99.90
40932;DHT22;36257;46.052;12.540;2023-06-10T04:18:16;18.60;99.90
40932;DHT22;36257;46.052;12.540;2023-06-10T04:20:42;18.70;99.90
40932;DHT22;36257;46.052;12.540;2023-06-10T04:23:09;18.70;99.90
40932;DHT22;36257;46.052;12.540;2023-06-10T04:25:35;18.80;99.90
40932;DHT22;36257;46.052;12.540;2023-06-10T04:28:00;18.80;99.90
40932;DHT22;36257;46.052;12.540;2023-06-10T04:30:26;18.90;99.90
40932;DHT22;36257;46.052;12.540;2023-06-10T04:32:52;18.90;99.90
40932;DHT22;36257;46.052;12.540;2023-06-10T04:35:17;19.00;99.90
40932;DHT22;36257;46.052;12.540;2023-06-10T04:37:43;19.10;99.90
40932;DHT22;36257;46.052;12.540;2023-06-10T04:40:09;19.10;99.90
40932;DHT22;36257;46.052;12.540;2023-06-10T04:42:35;19.10;99.90
40932;DHT22;36257;46.052;12.540;2023-06-10T04:45:01;19.20;99.90
40932;DHT22;36257;46.052;12.540;2023-06-10T04:47:28;19.20;99.90
40932;DHT22;36257;46.052;12.540;2023-06-10T04:49:53;19.30;99.90
40932;DHT22;36257;46.052;12.540;2023-06-10T04:52:19;19.30;99.90
40932;DHT22;36257;46.052;12.540;2023-06-10T04:54:45;19.40;99.90
40932;DHT22;36257;46.052;12.540;2023-06-10T04:57:10;19.50;99.90
40932;DHT22;36257;46.052;12.540;2023-06-10T04:59:37;19.60;99.90
40932;DHT22;36257;46.052;12.540;2023-06-10T05:02:06;19.70;99.90
40932;DHT22;36257;46.052;12.540;2023-06-10T05:04:32;19.80;99.90
40932;DHT22;36257;46.052;12.540;2023-06-10T05:06:58;19.80;99.90
40932;DHT22;36257;46.052;12.540;2023-06-10T05:09:24;19.90;99.90
40932;DHT22;36257;46.052;12.540;2023-06-10T05:11:49;20.00;99.90
40932;DHT22;36257;46.052;12.540;2023-06-10T05:14:15;20.10;99.90
40932;DHT22;36257;46.052;12.540;2023-06-10T05:16:42;20.10;99.90
40932;DHT22;36257;46.052;12.540;2023-06-10T05:19:08;20.30;99.90
40932;DHT22;36257;46.052;12.540;2023-06-10T05:21:34;20.50;99.90
40932;DHT22;36257;46.052;12.540;2023-06-10T05:24:00;20.60;99.90
40932;DHT22;36257;46.052;12.540;2023-06-10T05:26:25;20.80;99.90
40932;DHT22;36257;46.052;12.540;2023-06-10T05:28:51;21.00;99.90
40932;DHT22;36257;46.052;12.540;2023-06-10T05:31:18;21.20;99.80
40932;DHT22;36257;46.052;12.540;2023-06-10T05:33:43;21.40;97.80
40932;DHT22;36257;46.052;12.540;2023-06-10T05:36:09;21.50;96.60
40932;DHT22;36257;46.052;12.540;2023-06-10T05:38:35;21.70;96.90
40932;DHT22;36257;46.052;12.540;2023-06-10T05:41:00;21.80;96.60
40932;DHT22;36257;46.052;12.540;2023-06-10T05:43:26;22.00;95.20
40932;DHT22;36257;46.052;12.540;2023-06-10T05:45:52;22.10;93.40
40932;DHT22;36257;46.052;12.540;2023-06-10T05:48:17;22.10;93.10
40932;DHT22;36257;46.052;12.540;2023-06-10T05:50:45;22.10;93.90
40932;DHT22;36257;46.052;12.540;2023-06-10T05:53:16;22.20;94.90
40932;DHT22;36257;46.052;12.540;2023-06-10T05:55:43;22.30;95.10
40932;DHT22;36257;46.052;12.540;2023-06-10T05:58:09;22.30;92.10
40932;DHT22;36257;46.052;12.540;2023-06-10T06:00:35;22.40;93.50
40932;DHT22;36257;46.052;12.540;2023-06-10T06:03:00;22.50;92.30
40932;DHT22;36257;46.052;12.540;2023-06-10T06:05:26;22.60;92.60
40932;DHT22;36257;46.052;12.540;2023-06-10T06:07:52;22.70;93.40
40932;DHT22;36257;46.052;12.540;2023-06-10T06:10:18;22.80;96.70
40932;DHT22;36257;46.052;12.540;2023-06-10T06:12:44;23.00;94.00
40932;DHT22;36257;46.052;12.540;2023-06-10T06:15:10;23.30;91.80
40932;DHT22;36257;46.052;12.540;2023-06-10T06:17:36;23.50;92.50
40932;DHT22;36257;46.052;12.540;2023-06-10T06:20:03;23.50;91.90
40932;DHT22;36257;46.052;12.540;2023-06-10T06:22:28;23.60;92.40
40932;DHT22;36257;46.052;12.540;2023-06-10T06:24:54;23.70;92.90
40932;DHT22;36257;46.052;12.540;2023-06-10T06:27:20;23.60;92.30
40932;DHT22;36257;46.052;12.540;2023-06-10T06:29:46;23.80;93.10
40932;DHT22;36257;46.052;12.540;2023-06-10T06:32:12;23.80;90.80
40932;DHT22;36257;46.052;12.540;2023-06-10T06:34:38;23.70;90.80
40932;DHT22;36257;46.052;12.540;2023-06-10T06:37:03;23.80;90.50
40932;DHT22;36257;46.052;12.540;2023-06-10T06:39:29;23.80;92.00
40932;DHT22;36257;46.052;12.540;2023-06-10T06:41:55;23.60;91.70
40932;DHT22;36257;46.052;12.540;2023-06-10T06:44:21;23.60;91.80
40932;DHT22;36257;46.052;12.540;2023-06-10T06:46:46;23.90;92.70
40932;DHT22;36257;46.052;12.540;2023-06-10T06:49:12;24.10;92.00
40932;DHT22;36257;46.052;12.540;2023-06-10T06:51:37;24.20;90.40
40932;DHT22;36257;46.052;12.540;2023-06-10T06:54:03;24.20;90.50
40932;DHT22;36257;46.052;12.540;2023-06-10T06:56:31;24.30;90.80
40932;DHT22;36257;46.052;12.540;2023-06-10T06:58:56;24.40;91.90
40932;DHT22;36257;46.052;12.540;2023-06-10T07:01:22;24.50;94.20
40932;DHT22;36257;46.052;12.540;2023-06-10T07:03:47;24.60;90.50
40932;DHT22;36257;46.052;12.540;2023-06-10T07:06:13;24.80;92.00
40932;DHT22;36257;46.052;12.540;2023-06-10T07:08:39;25.00;90.80
40932;DHT22;36257;46.052;12.540;2023-06-10T07:11:04;25.10;89.70
40932;DHT22;36257;46.052;12.540;2023-06-10T07:13:30;25.10;89.10
40932;DHT22;36257;46.052;12.540;2023-06-10T07:15:56;25.20;88.80
40932;DHT22;36257;46.052;12.540;2023-06-10T07:18:21;25.20;88.60
40932;DHT22;36257;46.052;12.540;2023-06-10T07:20:47;25.20;88.80
40932;DHT22;36257;46.052;12.540;2023-06-10T07:23:13;25.20;89.20
40932;DHT22;36257;46.052;12.540;2023-06-10T07:25:38;25.20;87.90
40932;DHT22;36257;46.052;12.540;2023-06-10T07:28:04;25.40;89.20
40932;DHT22;36257;46.052;12.540;2023-06-10T07:30:30;25.50;88.80
40932;DHT22;36257;46.052;12.540;2023-06-10T07:32:55;25.80;88.80
40932;DHT22;36257;46.052;12.540;2023-06-10T07:35:21;26.10;88.10
40932;DHT22;36257;46.052;12.540;2023-06-10T07:37:47;26.30;85.50
40932;DHT22;36257;46.052;12.540;2023-06-10T07:40:12;26.30;83.90
40932;DHT22;36257;46.052;12.540;2023-06-10T07:42:38;26.50;84.20
40932;DHT22;36257;46.052;12.540;2023-06-10T07:45:04;26.50;84.50
40932;DHT22;36257;46.052;12.540;2023-06-10T07:47:34;26.60;84.20
40932;DHT22;36257;46.052;12.540;2023-06-10T07:50:00;26.70;83.30
40932;DHT22;36257;46.052;12.540;2023-06-10T07:52:25;26.70;83.60
40932;DHT22;36257;46.052;12.540;2023-06-10T07:54:51;26.90;85.90
40932;DHT22;36257;46.052;12.540;2023-06-10T07:57:18;27.10;84.10
40932;DHT22;36257;46.052;12.540;2023-06-10T07:59:44;27.30;83.00
40932;DHT22;36257;46.052;12.540;2023-06-10T08:02:10;27.50;83.20
40932;DHT22;36257;46.052;12.540;2023-06-10T08:04:36;27.40;80.80
40932;DHT22;36257;46.052;12.540;2023-06-10T08:07:02;27.50;82.40
40932;DHT22;36257;46.052;12.540;2023-06-10T08:09:28;27.50;84.70
40932;DHT22;36257;46.052;12.540;2023-06-10T08:11:53;27.70;83.40
40932;DHT22;36257;46.052;12.540;2023-06-10T08:14:19;27.70;81.40
40932;DHT22;36257;46.052;12.540;2023-06-10T08:16:45;27.50;80.70
40932;DHT22;36257;46.052;12.540;2023-06-10T08:19:11;27.40;81.30
40932;DHT22;36257;46.052;12.540;2023-06-10T08:21:36;27.40;81.70
40932;DHT22;36257;46.052;12.540;2023-06-10T08:24:08;27.20;81.40
40932;DHT22;36257;46.052;12.540;2023-06-10T08:26:34;26.80;81.60
40932;DHT22;36257;46.052;12.540;2023-06-10T08:29:00;27.00;84.20
40932;DHT22;36257;46.052;12.540;2023-06-10T08:31:25;27.20;83.20
40932;DHT22;36257;46.052;12.540;2023-06-10T08:33:51;27.50;80.50
40932;DHT22;36257;46.052;12.540;2023-06-10T08:36:17;27.80;80.40
40932;DHT22;36257;46.052;12.540;2023-06-10T08:38:42;28.10;81.20
40932;DHT22;36257;46.052;12.540;2023-06-10T08:41:09;28.20;78.10
40932;DHT22;36257;46.052;12.540;2023-06-10T08:43:43;28.30;77.70
40932;DHT22;36257;46.052;12.540;2023-06-10T08:46:11;28.40;78.50
40932;DHT22;36257;46.052;12.540;2023-06-10T08:48:42;28.60;78.40
40932;DHT22;36257;46.052;12.540;2023-06-10T08:51:10;28.60;77.80
40932;DHT22;36257;46.052;12.540;2023-06-10T08:53:38;28.60;77.30
40932;DHT22;36257;46.052;12.540;2023-06-10T08:56:09;28.90;80.70
40932;DHT22;36257;46.052;12.540;2023-06-10T08:58:35;29.30;78.80
40932;DHT22;36257;46.052;12.540;2023-06-10T09:01:10;29.40;76.90
40932;DHT22;36257;46.052;12.540;2023-06-10T09:03:37;29.20;76.60
40932;DHT22;36257;46.052;12.540;2023-06-10T09:06:05;28.80;76.40
40932;DHT22;36257;46.052;12.540;2023-06-10T09:08:32;28.70;77.70
40932;DHT22;36257;46.052;12.540;2023-06-10T09:10:58;28.90;78.80
40932;DHT22;36257;46.052;12.540;2023-06-10T09:13:24;29.10;76.50
40932;DHT22;36257;46.052;12.540;2023-06-10T09:15:49;29.00;78.10
40932;DHT22;36257;46.052;12.540;2023-06-10T09:18:16;29.10;79.60
40932;DHT22;36257;46.052;12.540;2023-06-10T09:20:43;29.40;77.30
40932;DHT22;36257;46.052;12.540;2023-06-10T09:23:09;29.50;75.00
40932;DHT22;36257;46.052;12.540;2023-06-10T09:25:38;29.70;78.70
40932;DHT22;36257;46.052;12.540;2023-06-10T09:28:04;29.80;77.20
40932;DHT22;36257;46.052;12.540;2023-06-10T09:30:32;30.10;75.50
40932;DHT22;36257;46.052;12.540;2023-06-10T09:33:00;30.40;77.00
40932;DHT22;36257;46.052;12.540;2023-06-10T09:35:27;30.60;74.10
40932;DHT22;36257;46.052;12.540;2023-06-10T09:37:59;30.80;72.80
40932;DHT22;36257;46.052;12.540;2023-06-10T09:40:25;31.00;74.80
40932;DHT22;36257;46.052;12.540;2023-06-10T09:42:56;31.10;71.60
40932;DHT22;36257;46.052;12.540;2023-06-10T09:45:23;31.30;71.60
40932;DHT22;36257;46.052;12.540;2023-06-10T09:47:53;31.20;73.40
40932;DHT22;36257;46.052;12.540;2023-06-10T09:50:19;31.20;71.10
40932;DHT22;36257;46.052;12.540;2023-06-10T09:52:46;31.00;74.70
40932;DHT22;36257;46.052;12.540;2023-06-10T09:55:12;30.90;70.70
40932;DHT22;36257;46.052;12.540;2023-06-10T09:57:38;30.80;71.30
40932;DHT22;36257;46.052;12.540;2023-06-10T10:00:10;30.70;72.40
40932;DHT22;36257;46.052;12.540;2023-06-10T10:02:50;30.80;75.10
40932;DHT22;36257;46.052;12.540;2023-06-10T10:05:17;30.90;74.00
40932;DHT22;36257;46.052;12.540;2023-06-10T10:07:44;30.80;69.80
40932;DHT22;36257;46.052;12.540;2023-06-10T10:10:10;30.40;70.80
40932;DHT22;36257;46.052;12.540;2023-06-10T10:12:38;30.20;72.70
40932;DHT22;36257;46.052;12.540;2023-06-10T10:15:09;29.90;73.40
40932;DHT22;36257;46.052;12.540;2023-06-10T10:18:09;29.60;71.80
40932;DHT22;36257;46.052;12.540;2023-06-10T10:20:39;29.60;72.80
40932;DHT22;36257;46.052;12.540;2023-06-10T10:23:11;29.50;72.30
40932;DHT22;36257;46.052;12.540;2023-06-10T10:25:40;29.50;72.50
40932;DHT22;36257;46.052;12.540;2023-06-10T10:28:15;29.60;71.90
40932;DHT22;36257;46.052;12.540;2023-06-10T10:30:52;29.50;71.40
40932;DHT22;36257;46.052;12.540;2023-06-10T10:33:19;29.20;73.70
40932;DHT22;36257;46.052;12.540;2023-06-10T10:35:49;29.00;72.90
40932;DHT22;36257;46.052;12.540;2023-06-10T10:38:15;28.80;75.10
40932;DHT22;36257;46.052;12.540;2023-06-10T10:40:41;28.70;75.40
40932;DHT22;36257;46.052;12.540;2023-06-10T10:43:08;28.60;76.80
40932;DHT22;36257;46.052;12.540;2023-06-10T10:45:34;28.50;76.80
40932;DHT22;36257;46.052;12.540;2023-06-10T10:48:06;28.30;78.50
40932;DHT22;36257;46.052;12.540;2023-06-10T10:50:34;28.20;77.10
40932;DHT22;36257;46.052;12.540;2023-06-10T10:53:02;28.10;76.70
40932;DHT22;36257;46.052;12.540;2023-06-10T10:55:28;27.90;79.70
40932;DHT22;36257;46.052;12.540;2023-06-10T10:57:55;27.90;78.40
40932;DHT22;36257;46.052;12.540;2023-06-10T11:00:31;28.00;79.70
40932;DHT22;36257;46.052;12.540;2023-06-10T11:03:07;28.10;77.30
40932;DHT22;36257;46.052;12.540;2023-06-10T11:05:37;28.00;79.20
40932;DHT22;36257;46.052;12.540;2023-06-10T11:08:04;28.30;76.00
40932;DHT22;36257;46.052;12.540;2023-06-10T11:10:35;28.40;75.00
40932;DHT22;36257;46.052;12.540;2023-06-10T11:13:13;28.70;78.60
40932;DHT22;36257;46.052;12.540;2023-06-10T11:15:50;29.10;76.60
40932;DHT22;36257;46.052;12.540;2023-06-10T11:18:27;29.30;75.40
40932;DHT22;36257;46.052;12.540;2023-06-10T11:21:03;29.50;75.60
40932;DHT22;36257;46.052;12.540;2023-06-10T11:26:11;30.20;76.00
40932;DHT22;36257;46.052;12.540;2023-06-10T11:28:37;30.70;71.20
40932;DHT22;36257;46.052;12.540;2023-06-10T11:31:03;30.90;70.70
40932;DHT22;36257;46.052;12.540;2023-06-10T11:33:29;30.70;72.20
40932;DHT22;36257;46.052;12.540;2023-06-10T11:35:55;30.60;70.00
40932;DHT22;36257;46.052;12.540;2023-06-10T11:38:21;30.70;69.10
40932;DHT22;36257;46.052;12.540;2023-06-10T11:40:51;30.90;71.80
40932;DHT22;36257;46.052;12.540;2023-06-10T11:43:20;31.30;71.20
40932;DHT22;36257;46.052;12.540;2023-06-10T11:45:46;31.50;69.50
40932;DHT22;36257;46.052;12.540;2023-06-10T11:48:12;31.60;69.10
40932;DHT22;36257;46.052;12.540;2023-06-10T11:50:38;31.70;71.40
40932;DHT22;36257;46.052;12.540;2023-06-10T11:53:04;31.40;67.80
40932;DHT22;36257;46.052;12.540;2023-06-10T11:55:44;31.40;68.20
40932;DHT22;36257;46.052;12.540;2023-06-10T11:58:14;31.30;72.30
40932;DHT22;36257;46.052;12.540;2023-06-10T12:00:55;31.40;70.50
40932;DHT22;36257;46.052;12.540;2023-06-10T12:03:27;31.40;69.20
40932;DHT22;36257;46.052;12.540;2023-06-10T12:06:05;31.60;70.50
40932;DHT22;36257;46.052;12.540;2023-06-10T12:08:32;31.70;68.80
40932;DHT22;36257;46.052;12.540;2023-06-10T12:10:58;31.60;72.10
40932;DHT22;36257;46.052;12.540;2023-06-10T12:13:27;31.70;70.00
40932;DHT22;36257;46.052;12.540;2023-06-10T12:15:53;31.80;71.00
40932;DHT22;36257;46.052;12.540;2023-06-10T12:18:20;31.90;69.40
40932;DHT22;36257;46.052;12.540;2023-06-10T12:20:46;31.60;69.80
40932;DHT22;36257;46.052;12.540;2023-06-10T12:23:13;31.50;68.70
40932;DHT22;36257;46.052;12.540;2023-06-10T12:25:39;31.50;68.10
40932;DHT22;36257;46.052;12.540;2023-06-10T12:28:05;31.40;68.80
40932;DHT22;36257;46.052;12.540;2023-06-10T12:30:34;31.20;69.00
40932;DHT22;36257;46.052;12.540;2023-06-10T12:33:00;31.20;68.80
40932;DHT22;36257;46.052;12.540;2023-06-10T12:35:27;31.20;69.60
40932;DHT22;36257;46.052;12.540;2023-06-10T12:38:02;31.10;68.90
40932;DHT22;36257;46.052;12.540;2023-06-10T12:40:39;31.10;70.30
40932;DHT22;36257;46.052;12.540;2023-06-10T12:43:07;30.80;69.20
40932;DHT22;36257;46.052;12.540;2023-06-10T12:45:35;30.30;69.10
40932;DHT22;36257;46.052;12.540;2023-06-10T12:48:23;29.90;70.00
40932;DHT22;36257;46.052;12.540;2023-06-10T12:50:52;29.60;71.00
40932;DHT22;36257;46.052;12.540;2023-06-10T12:53:19;29.30;70.50
40932;DHT22;36257;46.052;12.540;2023-06-10T12:55:45;29.20;70.70
40932;DHT22;36257;46.052;12.540;2023-06-10T12:58:11;29.30;72.90
40932;DHT22;36257;46.052;12.540;2023-06-10T13:00:37;29.50;73.00
40932;DHT22;36257;46.052;12.540;2023-06-10T13:03:03;29.70;71.70
40932;DHT22;36257;46.052;12.540;2023-06-10T13:05:31;29.90;70.00
40932;DHT22;36257;46.052;12.540;2023-06-10T13:07:58;30.10;71.50
40932;DHT22;36257;46.052;12.540;2023-06-10T13:10:24;30.10;70.30
40932;DHT22;36257;46.052;12.540;2023-06-10T13:12:51;30.00;70.20
40932;DHT22;36257;46.052;12.540;2023-06-10T13:15:17;30.00;69.60
40932;DHT22;36257;46.052;12.540;2023-06-10T13:17:44;30.20;72.60
40932;DHT22;36257;46.052;12.540;2023-06-10T13:20:12;30.20;70.40
40932;DHT22;36257;46.052;12.540;2023-06-10T13:22:37;30.10;69.30
40932;DHT22;36257;46.052;12.540;2023-06-10T13:25:04;29.90;68.90
40932;DHT22;36257;46.052;12.540;2023-06-10T13:27:30;29.60;71.60
40932;DHT22;36257;46.052;12.540;2023-06-10T13:29:56;29.50;72.90
40932;DHT22;36257;46.052;12.540;2023-06-10T13:32:22;29.50;73.30
40932;DHT22;36257;46.052;12.540;2023-06-10T13:34:47;29.30;72.70
40932;DHT22;36257;46.052;12.540;2023-06-10T13:37:15;29.20;71.30
40932;DHT22;36257;46.052;12.540;2023-06-10T13:39:43;29.10;72.30
40932;DHT22;36257;46.052;12.540;2023-06-10T13:42:09;29.00;74.90
40932;DHT22;36257;46.052;12.540;2023-06-10T13:44:34;29.00;75.10
40932;DHT22;36257;46.052;12.540;2023-06-10T13:47:02;29.00;73.10
40932;DHT22;36257;46.052;12.540;2023-06-10T13:49:28;28.90;73.00
40932;DHT22;36257;46.052;12.540;2023-06-10T13:51:54;28.70;74.40
40932;DHT22;36257;46.052;12.540;2023-06-10T13:54:20;28.80;72.20
40932;DHT22;36257;46.052;12.540;2023-06-10T13:56:46;28.70;72.40
40932;DHT22;36257;46.052;12.540;2023-06-10T13:59:12;28.50;73.00
40932;DHT22;36257;46.052;12.540;2023-06-10T14:01:38;28.30;73.80
40932;DHT22;36257;46.052;12.540;2023-06-10T14:04:04;28.10;74.60
40932;DHT22;36257;46.052;12.540;2023-06-10T14:06:30;28.20;76.60
40932;DHT22;36257;46.052;12.540;2023-06-10T14:08:57;28.10;74.90
40932;DHT22;36257;46.052;12.540;2023-06-10T14:11:23;28.20;76.50
40932;DHT22;36257;46.052;12.540;2023-06-10T14:13:49;28.30;77.20
40932;DHT22;36257;46.052;12.540;2023-06-10T14:16:14;28.50;77.80
40932;DHT22;36257;46.052;12.540;2023-06-10T14:18:40;28.50;76.20
40932;DHT22;36257;46.052;12.540;2023-06-10T14:21:05;28.50;76.10
40932;DHT22;36257;46.052;12.540;2023-06-10T14:23:31;28.60;76.20
40932;DHT22;36257;46.052;12.540;2023-06-10T14:25:57;28.50;73.60
40932;DHT22;36257;46.052;12.540;2023-06-10T14:28:22;28.40;74.50
40932;DHT22;36257;46.052;12.540;2023-06-10T14:30:49;28.40;75.80
40932;DHT22;36257;46.052;12.540;2023-06-10T14:33:15;28.50;73.80
40932;DHT22;36257;46.052;12.540;2023-06-10T14:35:41;28.50;75.30
40932;DHT22;36257;46.052;12.540;2023-06-10T14:38:08;28.50;74.60
40932;DHT22;36257;46.052;12.540;2023-06-10T14:40:33;28.40;76.00
40932;DHT22;36257;46.052;12.540;2023-06-10T14:42:59;28.30;75.70
40932;DHT22;36257;46.052;12.540;2023-06-10T14:45:26;28.20;72.80
40932;DHT22;36257;46.052;12.540;2023-06-10T14:47:52;28.10;74.80
40932;DHT22;36257;46.052;12.540;2023-06-10T14:50:18;28.10;75.80
40932;DHT22;36257;46.052;12.540;2023-06-10T14:52:43;28.00;77.10
40932;DHT22;36257;46.052;12.540;2023-06-10T14:55:09;27.10;73.10
40932;DHT22;36257;46.052;12.540;2023-06-10T14:57:35;25.80;76.80
40932;DHT22;36257;46.052;12.540;2023-06-10T15:00:00;24.80;80.20
40932;DHT22;36257;46.052;12.540;2023-06-10T15:02:26;23.90;82.70
40932;DHT22;36257;46.052;12.540;2023-06-10T15:04:52;23.20;85.00
40932;DHT22;36257;46.052;12.540;2023-06-10T15:07:17;22.70;87.20
40932;DHT22;36257;46.052;12.540;2023-06-10T15:09:43;22.40;88.50
40932;DHT22;36257;46.052;12.540;2023-06-10T15:12:09;22.10;89.20
40932;DHT22;36257;46.052;12.540;2023-06-10T15:14:36;21.80;90.50
40932;DHT22;36257;46.052;12.540;2023-06-10T15:17:01;21.70;90.10
40932;DHT22;36257;46.052;12.540;2023-06-10T15:19:28;21.70;89.20
40932;DHT22;36257;46.052;12.540;2023-06-10T15:21:53;21.70;88.20